createdAt,value
2018-12-18T00:02:17.111Z,2.40
2018-12-18T00:04:45.213Z,2.40
2018-12-18T00:07:15.425Z,2.30
2018-12-18T00:09:43.539Z,2.30
2018-12-18T00:12:11.723Z,2.40
2018-12-18T00:14:39.859Z,2.40
2018-12-18T00:17:08.072Z,2.30
2018-12-18T00:19:36.249Z,2.40
2018-12-18T00:22:05.044Z,2.30
2018-12-18T00:24:33.157Z,2.40
2018-12-18T00:27:01.375Z,2.40
2018-12-18T00:29:29.869Z,2.40
2018-12-18T00:31:58.050Z,2.40
2018-12-18T00:34:26.181Z,2.40
2018-12-18T00:36:54.345Z,2.40
2018-12-18T00:39:22.520Z,2.40
2018-12-18T00:41:52.655Z,2.30
2018-12-18T00:44:20.826Z,2.30
2018-12-18T00:46:48.997Z,2.20
2018-12-18T00:49:17.176Z,2.20
2018-12-18T00:51:45.362Z,2.20
2018-12-18T00:54:13.474Z,2.20
2018-12-18T00:56:41.592Z,2.20
2018-12-18T01:00:13.711Z,2.30
2018-12-18T01:02:41.780Z,2.30
2018-12-18T01:05:10.670Z,2.30
2018-12-18T01:07:38.775Z,2.30
2018-12-18T01:10:07.109Z,2.30
2018-12-18T01:12:35.263Z,2.30
2018-12-18T01:15:04.883Z,2.30
2018-12-18T01:17:33.056Z,2.40
2018-12-18T01:20:01.187Z,2.40
2018-12-18T01:22:29.414Z,2.40
2018-12-18T01:24:57.555Z,2.40
2018-12-18T01:27:25.780Z,2.40
2018-12-18T01:29:53.910Z,2.40
2018-12-18T01:32:22.185Z,2.50
2018-12-18T01:34:50.361Z,2.50
2018-12-18T01:37:18.551Z,2.50
2018-12-18T01:39:46.755Z,2.50
2018-12-18T01:42:14.886Z,2.50
2018-12-18T01:44:43.029Z,2.50
2018-12-18T01:47:11.185Z,2.50
2018-12-18T01:49:39.254Z,2.40
2018-12-18T01:52:07.392Z,2.40
2018-12-18T01:54:35.569Z,2.50
2018-12-18T01:57:03.673Z,2.50
2018-12-18T01:59:31.768Z,2.50
2018-12-18T02:01:59.977Z,2.50
2018-12-18T02:04:28.107Z,2.50
2018-12-18T02:06:56.286Z,2.40
2018-12-18T02:09:24.487Z,2.40
2018-12-18T02:11:52.569Z,2.50
2018-12-18T02:14:20.738Z,2.50
2018-12-18T02:16:48.983Z,2.60
2018-12-18T02:19:17.086Z,2.60
2018-12-18T02:21:45.258Z,2.60
2018-12-18T02:24:13.434Z,2.60
2018-12-18T02:26:41.610Z,2.60
2018-12-18T02:29:09.787Z,2.60
2018-12-18T02:31:38.011Z,2.60
2018-12-18T02:34:13.430Z,2.60
2018-12-18T02:36:36.374Z,2.60
2018-12-18T02:39:06.653Z,2.60
2018-12-18T02:41:34.803Z,2.70
2018-12-18T02:44:02.975Z,2.70
2018-12-18T02:46:31.084Z,2.80
2018-12-18T02:48:59.103Z,2.70
2018-12-18T02:51:27.281Z,2.70
2018-12-18T02:53:55.446Z,2.60
2018-12-18T02:56:23.597Z,2.60
2018-12-18T02:58:51.841Z,2.60
2018-12-18T03:01:19.982Z,2.60
2018-12-18T03:03:48.129Z,2.50
2018-12-18T03:06:16.314Z,2.50
2018-12-18T03:08:44.510Z,2.60
2018-12-18T03:11:16.912Z,2.60
2018-12-18T03:13:44.999Z,2.60
2018-12-18T03:16:13.094Z,2.60
2018-12-18T03:18:41.287Z,2.60
2018-12-18T03:21:09.431Z,2.70
2018-12-18T03:23:37.631Z,2.70
2018-12-18T03:26:05.791Z,2.70
2018-12-18T03:28:33.967Z,2.70
2018-12-18T03:31:02.165Z,2.70
2018-12-18T03:33:30.422Z,2.80
2018-12-18T03:35:58.694Z,2.70
2018-12-18T03:38:26.869Z,2.80
2018-12-18T03:40:55.076Z,2.80
2018-12-18T03:43:23.238Z,2.70
2018-12-18T03:45:53.061Z,2.70
2018-12-18T03:48:21.320Z,2.70
2018-12-18T03:50:49.522Z,2.70
2018-12-18T03:53:17.699Z,2.80
2018-12-18T03:55:45.863Z,2.90
2018-12-18T03:58:14.010Z,2.90
2018-12-18T04:00:42.211Z,2.90
2018-12-18T04:03:10.603Z,2.80
2018-12-18T04:05:38.999Z,2.90
2018-12-18T04:08:07.145Z,2.90
2018-12-18T04:10:35.470Z,2.90
2018-12-18T04:13:03.587Z,2.90
2018-12-18T04:15:31.775Z,3.00
2018-12-18T04:17:59.934Z,2.90
2018-12-18T04:20:28.145Z,2.90
2018-12-18T04:22:56.606Z,2.90
2018-12-18T04:25:24.781Z,2.90
2018-12-18T04:27:52.943Z,2.90
2018-12-18T04:30:21.118Z,3.00
2018-12-18T04:32:49.364Z,3.00
2018-12-18T04:35:17.579Z,2.90
2018-12-18T04:37:45.750Z,2.90
2018-12-18T04:40:13.916Z,2.90
2018-12-18T04:42:42.115Z,2.90
2018-12-18T04:45:10.365Z,2.90
2018-12-18T04:47:38.506Z,2.90
2018-12-18T04:50:06.628Z,3.00
2018-12-18T04:52:34.776Z,3.00
2018-12-18T04:55:02.986Z,3.00
2018-12-18T04:57:31.082Z,3.10
2018-12-18T04:59:59.220Z,3.10
2018-12-18T05:02:27.369Z,3.00
2018-12-18T05:04:55.510Z,3.10
2018-12-18T05:07:23.654Z,3.10
2018-12-18T05:09:51.824Z,3.10
2018-12-18T05:12:19.990Z,3.10
2018-12-18T05:14:48.310Z,3.30
2018-12-18T05:17:16.441Z,3.40
2018-12-18T05:19:44.703Z,3.20
2018-12-18T05:22:12.908Z,3.10
2018-12-18T05:24:41.178Z,3.10
2018-12-18T05:27:09.326Z,3.10
2018-12-18T05:29:37.539Z,3.10
2018-12-18T05:32:05.767Z,3.10
2018-12-18T05:34:34.035Z,3.20
2018-12-18T05:37:02.258Z,3.10
2018-12-18T05:39:30.378Z,3.20
2018-12-18T05:41:58.459Z,3.10
2018-12-18T05:44:26.638Z,3.10
2018-12-18T05:46:54.853Z,3.10
2018-12-18T05:49:23.033Z,3.10
2018-12-18T05:51:51.246Z,3.10
2018-12-18T05:54:20.400Z,3.10
2018-12-18T05:56:49.610Z,3.10
2018-12-18T05:59:17.770Z,3.10
2018-12-18T06:01:45.980Z,3.20
2018-12-18T06:04:14.103Z,3.30
2018-12-18T06:09:22.452Z,3.40
2018-12-18T06:11:50.660Z,3.40
2018-12-18T06:14:18.769Z,3.40
2018-12-18T06:16:46.982Z,3.40
2018-12-18T06:19:15.121Z,3.40
2018-12-18T06:21:43.306Z,3.50
2018-12-18T06:24:11.494Z,3.50
2018-12-18T06:26:39.684Z,3.40
2018-12-18T06:29:07.848Z,3.50
2018-12-18T06:31:35.993Z,3.50
2018-12-18T06:34:04.169Z,3.50
2018-12-18T06:36:32.468Z,3.50
2018-12-18T06:39:00.643Z,3.50
2018-12-18T06:41:28.841Z,3.50
2018-12-18T06:43:56.998Z,3.50
2018-12-18T06:46:25.191Z,3.50
2018-12-18T06:48:53.404Z,3.50
2018-12-18T06:51:21.587Z,3.60
2018-12-18T06:53:49.836Z,3.50
2018-12-18T06:56:18.049Z,3.60
2018-12-18T06:58:46.277Z,3.60
2018-12-18T07:01:14.415Z,3.60
2018-12-18T07:03:42.566Z,3.60
2018-12-18T07:06:10.760Z,3.60
2018-12-18T07:08:39.023Z,3.60
2018-12-18T07:11:07.197Z,3.70
2018-12-18T07:13:35.371Z,3.60
2018-12-18T07:16:03.618Z,3.60
2018-12-18T07:18:31.716Z,3.60
2018-12-18T07:20:59.885Z,3.70
2018-12-18T07:23:28.058Z,3.60
2018-12-18T07:25:56.323Z,3.60
2018-12-18T07:28:24.485Z,3.60
2018-12-18T07:30:52.774Z,3.70
2018-12-18T07:33:20.982Z,3.70
2018-12-18T07:35:49.139Z,3.70
2018-12-18T07:38:17.368Z,3.70
2018-12-18T07:40:45.503Z,3.80
2018-12-18T07:43:13.843Z,3.80
2018-12-18T07:45:41.978Z,3.80
2018-12-18T07:48:10.127Z,3.80
2018-12-18T07:50:38.251Z,3.80
2018-12-18T07:53:06.395Z,3.70
2018-12-18T07:55:34.561Z,3.70
2018-12-18T07:58:02.762Z,3.80
2018-12-18T08:00:30.988Z,3.80
2018-12-18T08:02:59.190Z,3.80
2018-12-18T08:05:30.030Z,3.80
2018-12-18T08:07:57.368Z,3.90
2018-12-18T08:10:25.550Z,3.90
2018-12-18T08:12:53.734Z,3.90
2018-12-18T08:15:21.946Z,4.00
2018-12-18T08:17:50.077Z,4.00
2018-12-18T08:20:18.266Z,4.00
2018-12-18T08:22:46.453Z,4.10
2018-12-18T08:25:14.584Z,4.10
2018-12-18T08:27:42.762Z,4.00
2018-12-18T08:30:11.237Z,4.00
2018-12-18T08:32:40.413Z,4.10
2018-12-18T08:35:08.571Z,4.10
2018-12-18T08:37:36.738Z,4.00
2018-12-18T08:40:05.290Z,4.00
2018-12-18T08:42:33.496Z,4.00
2018-12-18T08:45:01.668Z,4.00
2018-12-18T08:47:29.837Z,4.00
2018-12-18T08:49:58.068Z,4.10
2018-12-18T08:52:26.307Z,4.10
2018-12-18T08:54:54.441Z,4.20
2018-12-18T08:57:22.674Z,4.20
2018-12-18T08:59:50.804Z,4.30
2018-12-18T09:02:19.069Z,4.20
2018-12-18T09:04:47.345Z,4.20
2018-12-18T09:07:15.674Z,4.30
2018-12-18T09:09:43.795Z,4.30
2018-12-18T09:12:16.236Z,4.30
2018-12-18T09:14:51.325Z,4.40
2018-12-18T09:17:25.006Z,4.40
2018-12-18T09:19:53.220Z,4.40
2018-12-18T09:22:21.400Z,4.50
2018-12-18T09:24:49.610Z,4.50
2018-12-18T09:27:17.841Z,4.50
2018-12-18T09:29:46.137Z,4.60
2018-12-18T09:32:14.256Z,4.60
2018-12-18T09:34:42.538Z,4.60
2018-12-18T09:37:10.712Z,4.70
2018-12-18T09:39:42.050Z,4.80
2018-12-18T09:42:16.366Z,4.90
2018-12-18T09:44:44.635Z,4.90
2018-12-18T09:47:12.815Z,5.00
2018-12-18T09:49:41.059Z,5.00
2018-12-18T09:52:09.205Z,5.00
2018-12-18T09:54:37.427Z,4.90
2018-12-18T09:57:09.905Z,5.00
2018-12-18T09:59:37.981Z,5.00
2018-12-18T10:02:06.227Z,5.10
2018-12-18T10:04:34.378Z,5.10
2018-12-18T10:07:02.542Z,5.20
2018-12-18T10:09:30.651Z,5.20
2018-12-18T10:11:58.788Z,5.20
2018-12-18T10:14:27.071Z,5.30
2018-12-18T10:16:55.217Z,5.40
2018-12-18T10:19:23.452Z,5.40
2018-12-18T10:21:51.592Z,5.50
2018-12-18T10:24:19.726Z,5.50
2018-12-18T10:26:48.002Z,5.50
2018-12-18T10:29:16.240Z,5.60
2018-12-18T10:31:44.346Z,5.60
2018-12-18T10:34:12.498Z,5.60
2018-12-18T10:36:40.655Z,5.70
2018-12-18T10:39:09.029Z,5.70
2018-12-18T10:41:37.211Z,5.80
2018-12-18T10:44:05.382Z,5.70
2018-12-18T10:46:33.657Z,5.70
2018-12-18T10:49:01.910Z,5.70
2018-12-18T10:51:30.174Z,5.80
2018-12-18T10:53:58.667Z,5.90
2018-12-18T10:56:26.824Z,5.90
2018-12-18T10:58:55.090Z,5.90
2018-12-18T11:01:28.582Z,5.90
2018-12-18T11:03:56.748Z,6.00
2018-12-18T11:06:24.926Z,6.10
2018-12-18T11:08:52.965Z,6.10
2018-12-18T11:11:21.145Z,6.20
2018-12-18T11:13:49.360Z,6.10
2018-12-18T11:16:17.615Z,6.10
2018-12-18T11:18:45.774Z,6.10
2018-12-18T11:21:14.015Z,6.20
2018-12-18T11:23:42.198Z,6.20
2018-12-18T11:26:11.344Z,6.20
2018-12-18T11:28:39.470Z,6.10
2018-12-18T11:31:07.692Z,6.10
2018-12-18T11:33:35.793Z,6.20
2018-12-18T11:36:03.999Z,6.30
2018-12-18T11:38:32.150Z,6.30
2018-12-18T11:41:00.333Z,6.30
2018-12-18T11:43:28.517Z,6.40
2018-12-18T11:45:56.667Z,6.50
2018-12-18T11:48:24.950Z,6.50
2018-12-18T11:50:53.154Z,6.50
2018-12-18T11:53:21.298Z,6.50
2018-12-18T11:55:50.680Z,6.60
2018-12-18T11:58:18.924Z,6.80
2018-12-18T12:00:47.328Z,6.80
2018-12-18T12:03:15.561Z,7.00
2018-12-18T12:05:43.793Z,7.10
2018-12-18T12:08:12.021Z,7.10
2018-12-18T12:10:40.206Z,7.10
2018-12-18T12:13:08.401Z,7.10
2018-12-18T12:15:36.520Z,7.20
2018-12-18T12:18:04.723Z,7.30
2018-12-18T12:20:33.332Z,7.50
2018-12-18T12:23:01.464Z,7.70
2018-12-18T12:25:29.646Z,7.90
2018-12-18T12:28:03.110Z,8.00
2018-12-18T12:30:31.382Z,7.90
2018-12-18T12:32:59.582Z,7.90
2018-12-18T12:35:27.731Z,7.90
2018-12-18T12:37:56.013Z,7.90
2018-12-18T12:40:24.155Z,7.70
2018-12-18T12:42:52.514Z,7.50
2018-12-18T12:45:20.694Z,7.30
2018-12-18T12:47:52.095Z,7.40
2018-12-18T12:50:20.510Z,7.30
2018-12-18T12:52:48.679Z,7.20
2018-12-18T12:55:16.874Z,7.00
2018-12-18T12:57:45.102Z,7.00
2018-12-18T13:00:13.326Z,6.90
2018-12-18T13:02:41.478Z,6.90
2018-12-18T13:05:09.702Z,6.70
2018-12-18T13:07:38.030Z,6.60
2018-12-18T13:10:06.207Z,6.50
2018-12-18T13:12:34.439Z,6.60
2018-12-18T13:15:02.666Z,6.60
2018-12-18T13:17:30.829Z,6.60
2018-12-18T13:19:59.019Z,6.60
2018-12-18T13:22:27.115Z,6.50
2018-12-18T13:24:55.208Z,6.40
2018-12-18T13:27:23.316Z,6.30
2018-12-18T13:29:51.666Z,6.30
2018-12-18T13:32:19.966Z,6.30
2018-12-18T13:34:48.115Z,6.30
2018-12-18T13:37:16.328Z,6.30
2018-12-18T13:39:44.555Z,6.20
2018-12-18T13:42:12.701Z,6.10
2018-12-18T13:44:40.775Z,6.00
2018-12-18T13:47:08.904Z,6.00
2018-12-18T13:49:37.054Z,5.90
2018-12-18T13:52:05.340Z,5.80
2018-12-18T13:54:33.462Z,5.70
2018-12-18T13:57:01.568Z,5.60
2018-12-18T13:59:29.674Z,5.60
2018-12-18T14:01:57.902Z,5.60
2018-12-18T14:04:27.074Z,5.60
2018-12-18T14:06:55.322Z,5.50
2018-12-18T14:09:23.492Z,5.40
2018-12-18T14:11:51.749Z,5.40
2018-12-18T14:14:19.985Z,5.30
2018-12-18T14:16:48.122Z,5.20
2018-12-18T14:19:16.430Z,5.10
2018-12-18T14:21:44.564Z,5.00
2018-12-18T14:24:13.430Z,4.90
2018-12-18T14:26:41.621Z,4.80
2018-12-18T14:29:09.888Z,4.80
2018-12-18T14:31:38.086Z,4.70
2018-12-18T14:34:06.273Z,4.70
2018-12-18T14:36:34.534Z,4.60
2018-12-18T14:39:02.906Z,4.60
2018-12-18T14:41:31.182Z,4.50
2018-12-18T14:43:59.422Z,4.50
2018-12-18T14:46:27.736Z,4.50
2018-12-18T14:48:56.252Z,4.50
2018-12-18T14:51:24.531Z,4.50
2018-12-18T14:53:52.749Z,4.50
2018-12-18T14:56:21.110Z,4.50
2018-12-18T14:58:49.281Z,4.50
2018-12-18T15:01:17.529Z,4.50
2018-12-18T15:03:45.703Z,4.40
2018-12-18T15:06:13.943Z,4.40
2018-12-18T15:08:42.106Z,4.40
2018-12-18T15:11:10.242Z,4.30
2018-12-18T15:13:38.500Z,4.30
2018-12-18T15:16:06.666Z,4.30
2018-12-18T15:18:34.866Z,4.10
2018-12-18T15:21:03.014Z,4.10
2018-12-18T15:23:31.257Z,4.10
2018-12-18T15:25:59.410Z,4.00
2018-12-18T15:28:27.590Z,3.90
2018-12-18T15:30:55.726Z,3.80
2018-12-18T15:33:23.974Z,3.80
2018-12-18T15:35:52.547Z,3.70
2018-12-18T15:38:20.638Z,3.80
2018-12-18T15:40:48.865Z,3.70
2018-12-18T15:43:17.031Z,3.70
2018-12-18T15:45:45.358Z,3.70
2018-12-18T15:48:13.548Z,3.60
2018-12-18T15:50:41.753Z,3.70
2018-12-18T15:53:09.868Z,3.70
2018-12-18T15:55:38.041Z,3.60
2018-12-18T15:58:06.156Z,3.60
2018-12-18T16:00:34.319Z,3.60
2018-12-18T16:03:02.626Z,3.50
2018-12-18T16:05:30.794Z,3.40
2018-12-18T16:07:59.011Z,3.40
2018-12-18T16:10:27.198Z,3.40
2018-12-18T16:12:55.416Z,3.40
2018-12-18T16:15:23.670Z,3.30
2018-12-18T16:17:51.887Z,3.20
2018-12-18T16:20:20.107Z,3.30
2018-12-18T16:22:48.274Z,3.30
2018-12-18T16:25:16.436Z,3.20
2018-12-18T16:27:44.822Z,3.20
2018-12-18T16:30:12.974Z,3.20
2018-12-18T16:32:41.061Z,3.10
2018-12-18T16:35:09.285Z,3.10
2018-12-18T16:37:37.486Z,3.10
2018-12-18T16:40:05.694Z,3.20
2018-12-18T16:42:33.811Z,3.20
2018-12-18T16:45:02.354Z,3.10
2018-12-18T16:47:30.534Z,3.10
2018-12-18T16:49:58.796Z,3.00
2018-12-18T16:52:26.966Z,3.00
2018-12-18T16:54:55.101Z,3.00
2018-12-18T16:57:24.275Z,3.00
2018-12-18T16:59:52.521Z,3.00
2018-12-18T17:02:21.124Z,2.90
2018-12-18T17:04:49.367Z,2.90
2018-12-18T17:07:17.530Z,2.90
2018-12-18T17:09:45.598Z,2.90
2018-12-18T17:12:13.797Z,2.90
2018-12-18T17:14:41.905Z,2.90
2018-12-18T17:17:10.114Z,2.80
2018-12-18T17:19:38.322Z,2.80
2018-12-18T17:22:06.478Z,2.70
2018-12-18T17:24:34.658Z,2.80
2018-12-18T17:27:02.836Z,2.70
2018-12-18T17:29:31.010Z,2.70
2018-12-18T17:31:59.164Z,2.60
2018-12-18T17:34:27.287Z,2.60
2018-12-18T17:36:55.463Z,2.60
2018-12-18T17:39:23.682Z,2.60
2018-12-18T17:41:51.924Z,2.70
2018-12-18T17:44:20.168Z,2.60
2018-12-18T17:46:48.303Z,2.60
2018-12-18T17:49:16.484Z,2.50
2018-12-18T17:51:44.665Z,2.50
2018-12-18T17:54:12.821Z,2.50
2018-12-18T17:56:41.117Z,2.50
2018-12-18T17:59:09.360Z,2.40
2018-12-18T18:01:37.632Z,2.40
2018-12-18T18:04:05.861Z,2.40
2018-12-18T18:06:34.061Z,2.40
2018-12-18T18:12:33.664Z,2.40
2018-12-18T18:15:01.992Z,2.50
2018-12-18T18:17:30.086Z,2.50
2018-12-18T18:19:58.527Z,2.50
2018-12-18T18:22:26.663Z,2.40
2018-12-18T18:24:54.823Z,2.40
2018-12-18T18:27:23.067Z,2.30
2018-12-18T18:29:51.370Z,2.30
2018-12-18T18:32:19.565Z,2.30
2018-12-18T18:34:47.738Z,2.30
2018-12-18T18:37:15.921Z,2.20
2018-12-18T18:39:44.124Z,2.20
2018-12-18T18:42:12.334Z,2.10
2018-12-18T18:44:40.511Z,2.10
2018-12-18T18:47:08.708Z,2.00
2018-12-18T18:49:36.890Z,2.00
2018-12-18T18:52:05.055Z,1.90
2018-12-18T18:54:33.240Z,2.00
2018-12-18T18:57:01.463Z,1.90
2018-12-18T18:59:29.555Z,1.90
2018-12-18T19:01:57.743Z,1.90
2018-12-18T19:04:25.930Z,1.90
2018-12-18T19:06:54.155Z,1.90
2018-12-18T19:09:22.268Z,1.90
2018-12-18T19:11:50.460Z,1.80
2018-12-18T19:14:18.591Z,1.80
2018-12-18T19:16:46.781Z,1.90
2018-12-18T19:19:14.970Z,1.80
2018-12-18T19:21:43.230Z,1.80
2018-12-18T19:24:11.433Z,1.80
2018-12-18T19:26:39.662Z,1.80
2018-12-18T19:29:07.867Z,1.80
2018-12-18T19:31:36.055Z,1.80
2018-12-18T19:34:04.216Z,1.90
2018-12-18T19:36:32.651Z,1.90
2018-12-18T19:39:00.765Z,1.90
2018-12-18T19:41:28.958Z,1.90
2018-12-18T19:43:57.114Z,2.00
2018-12-18T19:46:25.306Z,1.90
2018-12-18T19:48:53.406Z,1.90
2018-12-18T19:51:21.618Z,1.80
2018-12-18T19:53:49.818Z,1.90
2018-12-18T19:56:18.022Z,1.80
2018-12-18T19:58:46.186Z,1.80
2018-12-18T20:01:14.364Z,1.80
2018-12-18T20:03:42.942Z,1.90
2018-12-18T20:06:11.308Z,1.90
2018-12-18T20:08:39.468Z,1.90
2018-12-18T20:11:07.594Z,1.90
2018-12-18T20:13:35.732Z,1.90
2018-12-18T20:16:04.084Z,1.80
2018-12-18T20:18:32.250Z,1.90
2018-12-18T20:21:01.450Z,1.90
2018-12-18T20:23:29.525Z,1.80
2018-12-18T20:25:58.074Z,1.80
2018-12-18T20:28:26.262Z,1.80
2018-12-18T20:30:54.487Z,1.70
2018-12-18T20:33:22.657Z,1.70
2018-12-18T20:35:50.874Z,1.70
2018-12-18T20:38:19.233Z,1.70
2018-12-18T20:40:47.353Z,1.70
2018-12-18T20:43:15.599Z,1.70
2018-12-18T20:45:44.882Z,1.60
2018-12-18T20:48:14.176Z,1.60
2018-12-18T20:50:42.406Z,1.60
2018-12-18T20:53:10.511Z,1.50
2018-12-18T20:55:39.682Z,1.50
2018-12-18T20:58:07.790Z,1.50
2018-12-18T21:00:36.029Z,1.40
2018-12-18T21:03:04.274Z,1.40
2018-12-18T21:05:32.527Z,1.30
2018-12-18T21:08:00.982Z,1.30
2018-12-18T21:10:29.374Z,1.30
2018-12-18T21:13:02.976Z,1.30
2018-12-18T21:15:31.406Z,1.30
2018-12-18T21:17:59.702Z,1.30
2018-12-18T21:20:29.306Z,1.30
2018-12-18T21:22:57.605Z,1.20
2018-12-18T21:25:26.133Z,1.20
2018-12-18T21:27:54.578Z,1.20
2018-12-18T21:30:22.955Z,1.10
2018-12-18T21:32:51.303Z,1.00
2018-12-18T21:35:19.722Z,1.00
2018-12-18T21:37:48.162Z,1.10
2018-12-18T21:40:16.442Z,1.00
2018-12-18T21:42:44.731Z,1.00
2018-12-18T21:45:13.087Z,0.90
2018-12-18T21:47:41.514Z,0.90
2018-12-18T21:50:10.051Z,0.90
2018-12-18T21:52:38.389Z,0.90
2018-12-18T21:57:46.618Z,0.80
2018-12-18T22:00:15.079Z,0.80
2018-12-18T22:02:43.466Z,0.70
2018-12-18T22:05:11.842Z,0.80
2018-12-18T22:07:40.228Z,0.70
2018-12-18T22:10:08.899Z,0.70
2018-12-18T22:12:37.287Z,0.70
2018-12-18T22:15:06.481Z,0.80
2018-12-18T22:17:34.946Z,0.80
2018-12-18T22:20:03.475Z,0.70
2018-12-18T22:22:32.008Z,0.70
2018-12-18T22:25:00.245Z,0.70
2018-12-18T22:27:29.548Z,0.70
2018-12-18T22:29:57.758Z,0.70
2018-12-18T22:32:25.881Z,0.70
2018-12-18T22:34:54.314Z,0.60
2018-12-18T22:37:23.009Z,0.60
2018-12-18T22:39:51.702Z,0.60
2018-12-18T22:42:19.930Z,0.60
2018-12-18T22:44:48.200Z,0.50
2018-12-18T22:47:16.394Z,0.50
2018-12-18T22:49:44.470Z,0.50
2018-12-18T22:52:12.757Z,0.50
2018-12-18T22:54:40.966Z,0.50
2018-12-18T22:57:09.220Z,0.50
2018-12-18T22:59:37.422Z,0.50
2018-12-18T23:02:11.165Z,0.50
2018-12-18T23:04:39.908Z,0.50
2018-12-18T23:07:08.282Z,0.50
2018-12-18T23:09:36.600Z,0.40
2018-12-18T23:12:04.974Z,0.40
2018-12-18T23:14:33.183Z,0.40
2018-12-18T23:17:01.291Z,0.40
2018-12-18T23:19:29.502Z,0.40
2018-12-18T23:21:57.786Z,0.40
2018-12-18T23:24:25.942Z,0.40
2018-12-18T23:26:54.122Z,0.40
2018-12-18T23:29:22.297Z,0.40
2018-12-18T23:31:50.491Z,0.40
2018-12-18T23:34:18.757Z,0.50
2018-12-18T23:36:46.954Z,0.50
2018-12-18T23:39:17.968Z,0.50
2018-12-18T23:41:46.477Z,0.50
2018-12-18T23:44:14.651Z,0.50
2018-12-18T23:46:42.766Z,0.50
2018-12-18T23:49:10.966Z,0.50
2018-12-18T23:51:40.115Z,0.40
2018-12-18T23:54:08.220Z,0.40
2018-12-18T23:56:36.271Z,0.40
2018-12-18T23:59:04.757Z,0.40
